sensor_id;sensor_type;location;lat;lon;timestamp;temperature;humidity
18581;DHT22;9420;50.876;7.012;2023-08-12T00:01:57;21.89;90.32
18581;DHT22;9420;50.876;7.012;2023-08-12T00:04:23;21.72;91.25
18581;DHT22;9420;50.876;7.012;2023-08-12T00:06:50;21.76;91.86
18581;DHT22;9420;50.876;7.012;2023-08-12T00:09:17;21.75;92.32
18581;DHT22;9420;50.876;7.012;2023-08-12T00:11:45;21.66;91.21
18581;DHT22;9420;50.876;7.012;2023-08-12T00:14:12;21.69;92.27
18581;DHT22;9420;50.876;7.012;2023-08-12T00:16:38;21.69;92.40
18581;DHT22;9420;50.876;7.012;2023-08-12T00:19:05;21.75;91.99
18581;DHT22;9420;50.876;7.012;2023-08-12T00:21:33;21.76;92.23
18581;DHT22;9420;50.876;7.012;2023-08-12T00:24:00;21.76;91.82
18581;DHT22;9420;50.876;7.012;2023-08-12T00:26:26;21.73;91.80
18581;DHT22;9420;50.876;7.012;2023-08-12T00:28:54;21.63;92.01
18581;DHT22;9420;50.876;7.012;2023-08-12T00:31:21;21.65;92.28
18581;DHT22;9420;50.876;7.012;2023-08-12T00:33:48;21.76;91.60
18581;DHT22;9420;50.876;7.012;2023-08-12T00:36:14;21.83;91.47
18581;DHT22;9420;50.876;7.012;2023-08-12T00:38:41;21.53;92.48
18581;DHT22;9420;50.876;7.012;2023-08-12T00:41:07;21.48;92.34
18581;DHT22;9420;50.876;7.012;2023-08-12T00:43:34;21.53;93.45
18581;DHT22;9420;50.876;7.012;2023-08-12T00:46:03;21.49;93.95
18581;DHT22;9420;50.876;7.012;2023-08-12T00:48:30;21.50;94.26
18581;DHT22;9420;50.876;7.012;2023-08-12T00:50:57;21.50;94.27
18581;DHT22;9420;50.876;7.012;2023-08-12T00:53:23;21.63;92.77
18581;DHT22;9420;50.876;7.012;2023-08-12T00:55:50;21.35;93.37
18581;DHT22;9420;50.876;7.012;2023-08-12T00:58:17;21.38;93.62
18581;DHT22;9420;50.876;7.012;2023-08-12T01:00:44;21.39;93.96
18581;DHT22;9420;50.876;7.012;2023-08-12T01:03:12;21.53;92.86
18581;DHT22;9420;50.876;7.012;2023-08-12T01:05:39;21.34;93.35
18581;DHT22;9420;50.876;7.012;2023-08-12T01:08:05;21.24;93.80
18581;DHT22;9420;50.876;7.012;2023-08-12T01:10:35;21.29;94.51
18581;DHT22;9420;50.876;7.012;2023-08-12T01:13:09;21.29;94.50
18581;DHT22;9420;50.876;7.012;2023-08-12T01:15:40;21.17;94.02
18581;DHT22;9420;50.876;7.012;2023-08-12T01:18:07;21.17;94.38
18581;DHT22;9420;50.876;7.012;2023-08-12T01:20:36;21.20;93.96
18581;DHT22;9420;50.876;7.012;2023-08-12T01:23:10;21.22;94.04
18581;DHT22;9420;50.876;7.012;2023-08-12T01:25:37;21.20;93.87
18581;DHT22;9420;50.876;7.012;2023-08-12T01:28:04;21.29;93.40
18581;DHT22;9420;50.876;7.012;2023-08-12T01:30:32;21.25;93.64
18581;DHT22;9420;50.876;7.012;2023-08-12T01:33:04;21.17;93.70
18581;DHT22;9420;50.876;7.012;2023-08-12T01:35:38;21.17;94.65
18581;DHT22;9420;50.876;7.012;2023-08-12T01:38:09;21.25;94.16
18581;DHT22;9420;50.876;7.012;2023-08-12T01:40:38;21.17;94.06
18581;DHT22;9420;50.876;7.012;2023-08-12T01:43:05;21.12;94.55
18581;DHT22;9420;50.876;7.012;2023-08-12T01:45:32;21.15;93.51
18581;DHT22;9420;50.876;7.012;2023-08-12T01:47:59;21.17;93.69
18581;DHT22;9420;50.876;7.012;2023-08-12T01:50:26;21.15;94.41
18581;DHT22;9420;50.876;7.012;2023-08-12T01:52:53;21.15;94.01
18581;DHT22;9420;50.876;7.012;2023-08-12T01:55:21;21.11;93.47
18581;DHT22;9420;50.876;7.012;2023-08-12T01:57:47;21.10;94.02
18581;DHT22;9420;50.876;7.012;2023-08-12T02:00:15;21.24;93.12
18581;DHT22;9420;50.876;7.012;2023-08-12T02:02:42;21.28;92.99
18581;DHT22;9420;50.876;7.012;2023-08-12T02:05:11;21.34;92.05
18581;DHT22;9420;50.876;7.012;2023-08-12T02:07:38;21.27;93.44
18581;DHT22;9420;50.876;7.012;2023-08-12T02:10:05;21.22;93.03
18581;DHT22;9420;50.876;7.012;2023-08-12T02:12:33;21.12;93.73
18581;DHT22;9420;50.876;7.012;2023-08-12T02:15:00;21.05;94.20
18581;DHT22;9420;50.876;7.012;2023-08-12T02:17:26;21.10;93.93
18581;DHT22;9420;50.876;7.012;2023-08-12T02:19:53;21.05;94.01
18581;DHT22;9420;50.876;7.012;2023-08-12T02:22:20;21.10;94.07
18581;DHT22;9420;50.876;7.012;2023-08-12T02:24:46;21.08;94.14
18581;DHT22;9420;50.876;7.012;2023-08-12T02:27:13;21.04;94.15
18581;DHT22;9420;50.876;7.012;2023-08-12T02:29:40;21.14;93.91
18581;DHT22;9420;50.876;7.012;2023-08-12T02:32:07;21.14;93.91
18581;DHT22;9420;50.876;7.012;2023-08-12T02:34:34;21.11;93.92
18581;DHT22;9420;50.876;7.012;2023-08-12T02:37:01;21.00;93.75
18581;DHT22;9420;50.876;7.012;2023-08-12T02:39:27;20.94;94.13
18581;DHT22;9420;50.876;7.012;2023-08-12T02:41:54;21.02;94.06
18581;DHT22;9420;50.876;7.012;2023-08-12T02:44:20;20.98;93.85
18581;DHT22;9420;50.876;7.012;2023-08-12T02:46:48;21.05;94.49
18581;DHT22;9420;50.876;7.012;2023-08-12T02:49:15;21.05;94.42
18581;DHT22;9420;50.876;7.012;2023-08-12T02:51:41;21.07;94.23
18581;DHT22;9420;50.876;7.012;2023-08-12T02:54:08;21.00;94.29
18581;DHT22;9420;50.876;7.012;2023-08-12T02:56:34;20.95;94.55
18581;DHT22;9420;50.876;7.012;2023-08-12T02:59:01;21.07;94.09
18581;DHT22;9420;50.876;7.012;2023-08-12T03:01:28;21.00;93.78
18581;DHT22;9420;50.876;7.012;2023-08-12T03:03:56;21.08;94.08
18581;DHT22;9420;50.876;7.012;2023-08-12T03:06:23;20.94;93.67
18581;DHT22;9420;50.876;7.012;2023-08-12T03:08:49;20.98;93.81
18581;DHT22;9420;50.876;7.012;2023-08-12T03:11:16;21.00;93.97
18581;DHT22;9420;50.876;7.012;2023-08-12T03:13:44;21.04;93.60
18581;DHT22;9420;50.876;7.012;2023-08-12T03:16:11;21.02;93.38
18581;DHT22;9420;50.876;7.012;2023-08-12T03:18:39;20.98;93.46
18581;DHT22;9420;50.876;7.012;2023-08-12T03:21:08;20.90;93.91
18581;DHT22;9420;50.876;7.012;2023-08-12T03:23:35;20.77;93.78
18581;DHT22;9420;50.876;7.012;2023-08-12T03:26:01;20.94;93.42
18581;DHT22;9420;50.876;7.012;2023-08-12T03:28:28;21.10;93.01
18581;DHT22;9420;50.876;7.012;2023-08-12T03:30:55;21.04;93.21
18581;DHT22;9420;50.876;7.012;2023-08-12T03:33:21;20.98;93.23
18581;DHT22;9420;50.876;7.012;2023-08-12T03:35:48;21.12;92.47
18581;DHT22;9420;50.876;7.012;2023-08-12T03:38:16;21.15;92.53
18581;DHT22;9420;50.876;7.012;2023-08-12T03:40:43;21.14;92.99
18581;DHT22;9420;50.876;7.012;2023-08-12T03:43:10;21.10;92.54
18581;DHT22;9420;50.876;7.012;2023-08-12T03:45:39;21.12;92.53
18581;DHT22;9420;50.876;7.012;2023-08-12T03:48:07;21.20;91.81
18581;DHT22;9420;50.876;7.012;2023-08-12T03:50:35;21.08;92.53
18581;DHT22;9420;50.876;7.012;2023-08-12T03:53:01;21.00;92.82
18581;DHT22;9420;50.876;7.012;2023-08-12T03:55:31;20.87;92.66
18581;DHT22;9420;50.876;7.012;2023-08-12T03:57:58;20.79;92.70
18581;DHT22;9420;50.876;7.012;2023-08-12T04:00:25;20.76;93.31
18581;DHT22;9420;50.876;7.012;2023-08-12T04:02:51;20.74;92.98
18581;DHT22;9420;50.876;7.012;2023-08-12T04:05:18;20.69;92.96
18581;DHT22;9420;50.876;7.012;2023-08-12T04:07:44;20.67;92.62
18581;DHT22;9420;50.876;7.012;2023-08-12T04:10:11;20.66;92.31
18581;DHT22;9420;50.876;7.012;2023-08-12T04:12:40;20.54;93.07
18581;DHT22;9420;50.876;7.012;2023-08-12T04:15:07;20.69;91.97
18581;DHT22;9420;50.876;7.012;2023-08-12T04:17:34;20.59;92.43
18581;DHT22;9420;50.876;7.012;2023-08-12T04:20:01;20.52;92.56
18581;DHT22;9420;50.876;7.012;2023-08-12T04:22:31;20.57;92.40
18581;DHT22;9420;50.876;7.012;2023-08-12T04:24:57;20.62;92.17
18581;DHT22;9420;50.876;7.012;2023-08-12T04:27:24;20.62;92.23
18581;DHT22;9420;50.876;7.012;2023-08-12T04:29:52;20.64;91.73
18581;DHT22;9420;50.876;7.012;2023-08-12T04:32:18;20.53;91.99
18581;DHT22;9420;50.876;7.012;2023-08-12T04:34:45;20.56;91.66
18581;DHT22;9420;50.876;7.012;2023-08-12T04:37:12;20.40;92.44
18581;DHT22;9420;50.876;7.012;2023-08-12T04:39:39;20.35;92.65
18581;DHT22;9420;50.876;7.012;2023-08-12T04:42:06;20.36;92.61
18581;DHT22;9420;50.876;7.012;2023-08-12T04:44:32;20.32;92.79
18581;DHT22;9420;50.876;7.012;2023-08-12T04:47:00;20.47;92.20
18581;DHT22;9420;50.876;7.012;2023-08-12T04:49:28;20.52;92.41
18581;DHT22;9420;50.876;7.012;2023-08-12T04:51:55;20.66;91.96
18581;DHT22;9420;50.876;7.012;2023-08-12T04:54:21;20.62;92.28
18581;DHT22;9420;50.876;7.012;2023-08-12T04:56:48;20.60;92.41
18581;DHT22;9420;50.876;7.012;2023-08-12T04:59:15;20.77;91.92
18581;DHT22;9420;50.876;7.012;2023-08-12T05:01:41;20.77;91.93
18581;DHT22;9420;50.876;7.012;2023-08-12T05:04:10;20.88;91.82
18581;DHT22;9420;50.876;7.012;2023-08-12T05:06:36;20.94;91.79
18581;DHT22;9420;50.876;7.012;2023-08-12T05:09:03;21.14;91.34
18581;DHT22;9420;50.876;7.012;2023-08-12T05:11:31;21.34;90.33
18581;DHT22;9420;50.876;7.012;2023-08-12T05:13:57;21.34;90.74
18581;DHT22;9420;50.876;7.012;2023-08-12T05:16:24;21.15;92.09
18581;DHT22;9420;50.876;7.012;2023-08-12T05:18:50;21.21;91.80
18581;DHT22;9420;50.876;7.012;2023-08-12T05:21:18;21.18;92.31
18581;DHT22;9420;50.876;7.012;2023-08-12T05:23:45;21.22;91.52
18581;DHT22;9420;50.876;7.012;2023-08-12T05:26:12;21.24;91.72
18581;DHT22;9420;50.876;7.012;2023-08-12T05:28:38;21.21;92.19
18581;DHT22;9420;50.876;7.012;2023-08-12T05:31:05;21.20;92.24
18581;DHT22;9420;50.876;7.012;2023-08-12T05:33:31;21.25;92.60
18581;DHT22;9420;50.876;7.012;2023-08-12T05:35:58;21.37;91.58
18581;DHT22;9420;50.876;7.012;2023-08-12T05:38:26;21.34;91.72
18581;DHT22;9420;50.876;7.012;2023-08-12T05:40:53;21.27;92.09
18581;DHT22;9420;50.876;7.012;2023-08-12T05:43:19;21.24;92.64
18581;DHT22;9420;50.876;7.012;2023-08-12T05:45:46;21.31;91.55
18581;DHT22;9420;50.876;7.012;2023-08-12T05:48:14;21.24;92.00
18581;DHT22;9420;50.876;7.012;2023-08-12T05:50:40;21.02;92.98
18581;DHT22;9420;50.876;7.012;2023-08-12T05:53:07;21.10;92.21
18581;DHT22;9420;50.876;7.012;2023-08-12T05:55:35;20.97;92.98
18581;DHT22;9420;50.876;7.012;2023-08-12T05:58:01;21.00;93.28
18581;DHT22;9420;50.876;7.012;2023-08-12T06:00:28;21.00;93.50
18581;DHT22;9420;50.876;7.012;2023-08-12T06:02:55;20.80;94.40
18581;DHT22;9420;50.876;7.012;2023-08-12T06:05:22;20.70;94.65
18581;DHT22;9420;50.876;7.012;2023-08-12T06:07:48;20.69;94.86
18581;DHT22;9420;50.876;7.012;2023-08-12T06:10:15;20.59;94.71
18581;DHT22;9420;50.876;7.012;2023-08-12T06:12:43;20.53;95.45
18581;DHT22;9420;50.876;7.012;2023-08-12T06:15:10;20.50;95.41
18581;DHT22;9420;50.876;7.012;2023-08-12T06:17:37;20.47;95.74
18581;DHT22;9420;50.876;7.012;2023-08-12T06:20:04;20.29;93.49
18581;DHT22;9420;50.876;7.012;2023-08-12T06:22:31;20.04;94.08
18581;DHT22;9420;50.876;7.012;2023-08-12T06:24:57;20.04;94.54
18581;DHT22;9420;50.876;7.012;2023-08-12T06:27:24;19.94;94.70
18581;DHT22;9420;50.876;7.012;2023-08-12T06:29:52;19.77;95.10
18581;DHT22;9420;50.876;7.012;2023-08-12T06:32:19;19.84;95.63
18581;DHT22;9420;50.876;7.012;2023-08-12T06:34:45;20.02;96.77
18581;DHT22;9420;50.876;7.012;2023-08-12T06:37:12;20.22;96.36
18581;DHT22;9420;50.876;7.012;2023-08-12T06:39:39;20.15;94.80
18581;DHT22;9420;50.876;7.012;2023-08-12T06:42:06;20.33;95.18
18581;DHT22;9420;50.876;7.012;2023-08-12T06:44:32;20.37;95.80
18581;DHT22;9420;50.876;7.012;2023-08-12T06:47:00;20.46;95.67
18581;DHT22;9420;50.876;7.012;2023-08-12T06:49:27;20.54;95.13
18581;DHT22;9420;50.876;7.012;2023-08-12T06:51:53;20.52;94.29
18581;DHT22;9420;50.876;7.012;2023-08-12T06:54:20;20.42;93.56
18581;DHT22;9420;50.876;7.012;2023-08-12T06:56:48;20.44;93.23
18581;DHT22;9420;50.876;7.012;2023-08-12T06:59:14;20.56;93.70
18581;DHT22;9420;50.876;7.012;2023-08-12T07:01:41;20.77;93.59
18581;DHT22;9420;50.876;7.012;2023-08-12T07:04:09;20.92;92.98
18581;DHT22;9420;50.876;7.012;2023-08-12T07:06:36;21.12;94.15
18581;DHT22;9420;50.876;7.012;2023-08-12T07:09:02;21.15;93.97
18581;DHT22;9420;50.876;7.012;2023-08-12T07:11:29;21.28;93.94
18581;DHT22;9420;50.876;7.012;2023-08-12T07:13:56;21.37;92.53
18581;DHT22;9420;50.876;7.012;2023-08-12T07:16:22;21.35;93.53
18581;DHT22;9420;50.876;7.012;2023-08-12T07:18:49;21.46;91.23
18581;DHT22;9420;50.876;7.012;2023-08-12T07:21:17;21.39;91.28
18581;DHT22;9420;50.876;7.012;2023-08-12T07:23:45;21.79;90.18
18581;DHT22;9420;50.876;7.012;2023-08-12T07:26:11;21.75;89.51
18581;DHT22;9420;50.876;7.012;2023-08-12T07:28:38;21.65;90.29
18581;DHT22;9420;50.876;7.012;2023-08-12T07:31:07;21.55;90.08
18581;DHT22;9420;50.876;7.012;2023-08-12T07:33:34;21.49;90.77
18581;DHT22;9420;50.876;7.012;2023-08-12T07:36:01;21.52;90.61
18581;DHT22;9420;50.876;7.012;2023-08-12T07:38:29;21.52;90.19
18581;DHT22;9420;50.876;7.012;2023-08-12T07:40:56;21.85;89.74
18581;DHT22;9420;50.876;7.012;2023-08-12T07:43:22;21.89;89.65
18581;DHT22;9420;50.876;7.012;2023-08-12T07:45:50;21.97;89.94
18581;DHT22;9420;50.876;7.012;2023-08-12T07:48:18;22.35;87.91
18581;DHT22;9420;50.876;7.012;2023-08-12T07:50:44;22.49;87.82
18581;DHT22;9420;50.876;7.012;2023-08-12T07:53:14;22.52;87.70
18581;DHT22;9420;50.876;7.012;2023-08-12T07:55:42;22.59;86.96
18581;DHT22;9420;50.876;7.012;2023-08-12T07:58:09;22.69;87.15
18581;DHT22;9420;50.876;7.012;2023-08-12T08:00:35;22.77;86.27
18581;DHT22;9420;50.876;7.012;2023-08-12T08:03:02;22.82;88.28
18581;DHT22;9420;50.876;7.012;2023-08-12T08:05:29;22.76;86.58
18581;DHT22;9420;50.876;7.012;2023-08-12T08:07:55;22.82;86.79
18581;DHT22;9420;50.876;7.012;2023-08-12T08:10:23;22.65;85.73
18581;DHT22;9420;50.876;7.012;2023-08-12T08:12:51;22.72;85.81
18581;DHT22;9420;50.876;7.012;2023-08-12T08:15:18;22.75;83.42
18581;DHT22;9420;50.876;7.012;2023-08-12T08:17:45;23.09;85.11
18581;DHT22;9420;50.876;7.012;2023-08-12T08:20:11;23.26;86.00
18581;DHT22;9420;50.876;7.012;2023-08-12T08:22:38;23.27;85.04
18581;DHT22;9420;50.876;7.012;2023-08-12T08:25:05;23.49;86.23
18581;DHT22;9420;50.876;7.012;2023-08-12T08:27:32;23.77;85.27
18581;DHT22;9420;50.876;7.012;2023-08-12T08:30:00;23.68;84.14
18581;DHT22;9420;50.876;7.012;2023-08-12T08:32:27;23.51;82.90
18581;DHT22;9420;50.876;7.012;2023-08-12T08:34:53;23.43;84.03
18581;DHT22;9420;50.876;7.012;2023-08-12T08:37:20;23.64;83.85
18581;DHT22;9420;50.876;7.012;2023-08-12T08:39:49;23.75;84.60
18581;DHT22;9420;50.876;7.012;2023-08-12T08:42:16;23.68;82.92
18581;DHT22;9420;50.876;7.012;2023-08-12T08:44:45;23.60;86.18
18581;DHT22;9420;50.876;7.012;2023-08-12T08:47:14;23.36;85.21
18581;DHT22;9420;50.876;7.012;2023-08-12T08:49:43;22.96;85.35
18581;DHT22;9420;50.876;7.012;2023-08-12T08:52:11;22.95;88.18
18581;DHT22;9420;50.876;7.012;2023-08-12T08:54:38;23.10;87.43
18581;DHT22;9420;50.876;7.012;2023-08-12T08:57:08;23.06;88.47
18581;DHT22;9420;50.876;7.012;2023-08-12T08:59:35;22.96;85.60
18581;DHT22;9420;50.876;7.012;2023-08-12T09:02:02;22.64;86.20
18581;DHT22;9420;50.876;7.012;2023-08-12T09:04:30;22.73;86.47
18581;DHT22;9420;50.876;7.012;2023-08-12T09:06:58;23.03;86.89
18581;DHT22;9420;50.876;7.012;2023-08-12T09:09:26;23.19;85.47
18581;DHT22;9420;50.876;7.012;2023-08-12T09:11:54;23.30;84.57
18581;DHT22;9420;50.876;7.012;2023-08-12T09:14:21;23.30;85.06
18581;DHT22;9420;50.876;7.012;2023-08-12T09:16:48;23.71;82.67
18581;DHT22;9420;50.876;7.012;2023-08-12T09:19:15;23.85;83.38
18581;DHT22;9420;50.876;7.012;2023-08-12T09:21:43;24.19;83.66
18581;DHT22;9420;50.876;7.012;2023-08-12T09:24:10;24.39;83.04
18581;DHT22;9420;50.876;7.012;2023-08-12T09:26:37;24.49;83.00
18581;DHT22;9420;50.876;7.012;2023-08-12T09:29:04;24.61;83.75
18581;DHT22;9420;50.876;7.012;2023-08-12T09:31:31;24.78;81.07
18581;DHT22;9420;50.876;7.012;2023-08-12T09:33:59;25.05;79.31
18581;DHT22;9420;50.876;7.012;2023-08-12T09:36:28;24.94;77.71
18581;DHT22;9420;50.876;7.012;2023-08-12T09:38:57;25.38;78.12
18581;DHT22;9420;50.876;7.012;2023-08-12T09:41:24;25.89;79.05
18581;DHT22;9420;50.876;7.012;2023-08-12T09:43:51;26.04;78.44
18581;DHT22;9420;50.876;7.012;2023-08-12T09:46:21;25.69;77.87
18581;DHT22;9420;50.876;7.012;2023-08-12T09:48:49;25.14;79.26
18581;DHT22;9420;50.876;7.012;2023-08-12T09:51:16;24.98;80.49
18581;DHT22;9420;50.876;7.012;2023-08-12T09:53:42;24.97;79.16
18581;DHT22;9420;50.876;7.012;2023-08-12T09:56:12;25.03;80.91
18581;DHT22;9420;50.876;7.012;2023-08-12T09:58:41;25.25;80.69
18581;DHT22;9420;50.876;7.012;2023-08-12T10:01:10;25.17;79.50
18581;DHT22;9420;50.876;7.012;2023-08-12T10:03:39;24.66;81.04
18581;DHT22;9420;50.876;7.012;2023-08-12T10:06:08;24.08;80.09
18581;DHT22;9420;50.876;7.012;2023-08-12T10:08:35;23.88;83.33
18581;DHT22;9420;50.876;7.012;2023-08-12T10:11:02;23.70;82.85
18581;DHT22;9420;50.876;7.012;2023-08-12T10:13:30;23.47;81.44
18581;DHT22;9420;50.876;7.012;2023-08-12T10:15:57;23.27;84.79
18581;DHT22;9420;50.876;7.012;2023-08-12T10:18:24;23.12;83.08
18581;DHT22;9420;50.876;7.012;2023-08-12T10:20:52;23.07;83.80
18581;DHT22;9420;50.876;7.012;2023-08-12T10:23:21;22.83;86.70
18581;DHT22;9420;50.876;7.012;2023-08-12T10:25:49;22.47;88.87
18581;DHT22;9420;50.876;7.012;2023-08-12T10:28:19;22.45;88.51
18581;DHT22;9420;50.876;7.012;2023-08-12T10:30:46;22.43;90.85
18581;DHT22;9420;50.876;7.012;2023-08-12T10:33:14;23.23;88.37
18581;DHT22;9420;50.876;7.012;2023-08-12T10:35:43;23.84;87.62
18581;DHT22;9420;50.876;7.012;2023-08-12T10:38:11;23.91;84.74
18581;DHT22;9420;50.876;7.012;2023-08-12T10:40:39;23.84;85.22
18581;DHT22;9420;50.876;7.012;2023-08-12T10:43:06;24.30;83.92
18581;DHT22;9420;50.876;7.012;2023-08-12T10:45:43;24.26;83.96
18581;DHT22;9420;50.876;7.012;2023-08-12T10:48:16;24.20;84.05
18581;DHT22;9420;50.876;7.012;2023-08-12T10:50:44;24.08;82.76
18581;DHT22;9420;50.876;7.012;2023-08-12T10:53:24;24.20;83.80
18581;DHT22;9420;50.876;7.012;2023-08-12T10:55:55;23.81;77.37
18581;DHT22;9420;50.876;7.012;2023-08-12T10:58:29;23.65;79.49
18581;DHT22;9420;50.876;7.012;2023-08-12T11:00:57;23.55;79.99
18581;DHT22;9420;50.876;7.012;2023-08-12T11:03:25;23.53;81.67
18581;DHT22;9420;50.876;7.012;2023-08-12T11:05:53;23.41;81.81
18581;DHT22;9420;50.876;7.012;2023-08-12T11:08:26;23.30;85.06
18581;DHT22;9420;50.876;7.012;2023-08-12T11:10:54;23.22;82.94
18581;DHT22;9420;50.876;7.012;2023-08-12T11:13:21;23.24;82.32
18581;DHT22;9420;50.876;7.012;2023-08-12T11:15:48;23.39;81.99
18581;DHT22;9420;50.876;7.012;2023-08-12T11:18:16;23.40;80.15
18581;DHT22;9420;50.876;7.012;2023-08-12T11:20:45;23.47;79.37
18581;DHT22;9420;50.876;7.012;2023-08-12T11:23:11;23.54;79.43
18581;DHT22;9420;50.876;7.012;2023-08-12T11:25:42;23.53;76.79
18581;DHT22;9420;50.876;7.012;2023-08-12T11:28:09;23.53;79.18
18581;DHT22;9420;50.876;7.012;2023-08-12T11:30:36;23.50;79.46
18581;DHT22;9420;50.876;7.012;2023-08-12T11:33:03;23.43;80.25
18581;DHT22;9420;50.876;7.012;2023-08-12T11:35:30;23.37;80.92
18581;DHT22;9420;50.876;7.012;2023-08-12T11:37:58;23.31;79.85
18581;DHT22;9420;50.876;7.012;2023-08-12T11:40:27;23.37;80.15
18581;DHT22;9420;50.876;7.012;2023-08-12T11:42:54;23.47;78.80
18581;DHT22;9420;50.876;7.012;2023-08-12T11:45:22;23.51;78.95
18581;DHT22;9420;50.876;7.012;2023-08-12T11:47:50;23.61;80.60
18581;DHT22;9420;50.876;7.012;2023-08-12T11:50:20;23.94;80.47
18581;DHT22;9420;50.876;7.012;2023-08-12T11:52:47;24.13;80.75
18581;DHT22;9420;50.876;7.012;2023-08-12T11:55:15;24.10;78.38
18581;DHT22;9420;50.876;7.012;2023-08-12T11:57:43;24.09;78.68
18581;DHT22;9420;50.876;7.012;2023-08-12T12:00:11;23.91;78.33
18581;DHT22;9420;50.876;7.012;2023-08-12T12:02:41;24.06;76.91
18581;DHT22;9420;50.876;7.012;2023-08-12T12:05:10;24.37;75.07
18581;DHT22;9420;50.876;7.012;2023-08-12T12:07:37;24.44;74.03
18581;DHT22;9420;50.876;7.012;2023-08-12T12:10:05;24.59;75.93
18581;DHT22;9420;50.876;7.012;2023-08-12T12:12:34;24.90;74.42
18581;DHT22;9420;50.876;7.012;2023-08-12T12:15:01;25.12;72.97
18581;DHT22;9420;50.876;7.012;2023-08-12T12:17:29;25.63;72.40
18581;DHT22;9420;50.876;7.012;2023-08-12T12:19:57;25.87;71.40
18581;DHT22;9420;50.876;7.012;2023-08-12T12:22:27;26.28;68.78
18581;DHT22;9420;50.876;7.012;2023-08-12T12:24:57;26.21;69.14
18581;DHT22;9420;50.876;7.012;2023-08-12T12:27:24;26.00;69.22
18581;DHT22;9420;50.876;7.012;2023-08-12T12:29:52;25.90;70.13
18581;DHT22;9420;50.876;7.012;2023-08-12T12:32:19;25.86;69.56
18581;DHT22;9420;50.876;7.012;2023-08-12T12:34:46;25.93;70.37
18581;DHT22;9420;50.876;7.012;2023-08-12T12:37:13;26.10;70.15
18581;DHT22;9420;50.876;7.012;2023-08-12T12:39:39;25.58;70.28
18581;DHT22;9420;50.876;7.012;2023-08-12T12:42:07;25.41;72.29
18581;DHT22;9420;50.876;7.012;2023-08-12T12:44:33;25.36;71.26
18581;DHT22;9420;50.876;7.012;2023-08-12T12:47:02;25.47;70.16
18581;DHT22;9420;50.876;7.012;2023-08-12T12:49:29;26.18;68.06
18581;DHT22;9420;50.876;7.012;2023-08-12T12:51:55;25.87;69.55
18581;DHT22;9420;50.876;7.012;2023-08-12T12:54:22;25.87;69.02
18581;DHT22;9420;50.876;7.012;2023-08-12T12:56:50;26.18;68.43
18581;DHT22;9420;50.876;7.012;2023-08-12T12:59:17;25.79;69.16
18581;DHT22;9420;50.876;7.012;2023-08-12T13:01:44;26.14;68.84
18581;DHT22;9420;50.876;7.012;2023-08-12T13:04:12;26.25;68.92
18581;DHT22;9420;50.876;7.012;2023-08-12T13:06:39;27.78;63.11
18581;DHT22;9420;50.876;7.012;2023-08-12T13:09:06;28.50;64.05
18581;DHT22;9420;50.876;7.012;2023-08-12T13:11:33;30.64;56.89
18581;DHT22;9420;50.876;7.012;2023-08-12T13:14:01;31.10;56.06
18581;DHT22;9420;50.876;7.012;2023-08-12T13:16:27;30.61;55.13
18581;DHT22;9420;50.876;7.012;2023-08-12T13:18:54;28.39;62.69
18581;DHT22;9420;50.876;7.012;2023-08-12T13:21:22;27.27;64.19
18581;DHT22;9420;50.876;7.012;2023-08-12T13:23:48;26.78;66.31
18581;DHT22;9420;50.876;7.012;2023-08-12T13:26:15;25.17;75.00
18581;DHT22;9420;50.876;7.012;2023-08-12T13:28:42;23.98;78.35
18581;DHT22;9420;50.876;7.012;2023-08-12T13:31:09;26.35;75.10
18581;DHT22;9420;50.876;7.012;2023-08-12T13:33:36;26.76;72.33
18581;DHT22;9420;50.876;7.012;2023-08-12T13:36:03;27.17;70.15
18581;DHT22;9420;50.876;7.012;2023-08-12T13:38:31;27.89;70.48
18581;DHT22;9420;50.876;7.012;2023-08-12T13:40:58;27.88;69.18
18581;DHT22;9420;50.876;7.012;2023-08-12T13:43:25;27.22;67.94
18581;DHT22;9420;50.876;7.012;2023-08-12T13:45:51;25.47;74.37
18581;DHT22;9420;50.876;7.012;2023-08-12T13:48:18;25.14;75.37
18581;DHT22;9420;50.876;7.012;2023-08-12T13:50:44;24.52;76.31
18581;DHT22;9420;50.876;7.012;2023-08-12T13:53:14;25.63;74.35
18581;DHT22;9420;50.876;7.012;2023-08-12T13:55:43;27.34;69.42
18581;DHT22;9420;50.876;7.012;2023-08-12T13:58:10;27.85;67.41
18581;DHT22;9420;50.876;7.012;2023-08-12T14:00:37;26.92;68.16
18581;DHT22;9420;50.876;7.012;2023-08-12T14:03:04;29.40;63.05
18581;DHT22;9420;50.876;7.012;2023-08-12T14:05:31;28.94;64.34
18581;DHT22;9420;50.876;7.012;2023-08-12T14:07:57;29.74;60.20
18581;DHT22;9420;50.876;7.012;2023-08-12T14:10:24;29.87;57.81
18581;DHT22;9420;50.876;7.012;2023-08-12T14:12:52;29.32;59.35
18581;DHT22;9420;50.876;7.012;2023-08-12T14:15:19;29.73;57.76
18581;DHT22;9420;50.876;7.012;2023-08-12T14:17:45;29.98;56.58
18581;DHT22;9420;50.876;7.012;2023-08-12T14:20:12;30.13;56.30
18581;DHT22;9420;50.876;7.012;2023-08-12T14:22:40;29.91;56.44
18581;DHT22;9420;50.876;7.012;2023-08-12T14:25:09;29.22;58.40
18581;DHT22;9420;50.876;7.012;2023-08-12T14:27:36;29.55;57.84
18581;DHT22;9420;50.876;7.012;2023-08-12T14:30:05;31.20;56.35
18581;DHT22;9420;50.876;7.012;2023-08-12T14:32:32;31.20;52.14
18581;DHT22;9420;50.876;7.012;2023-08-12T14:34:58;31.14;53.88
18581;DHT22;9420;50.876;7.012;2023-08-12T14:37:25;30.79;54.11
18581;DHT22;9420;50.876;7.012;2023-08-12T14:39:52;30.38;54.80
18581;DHT22;9420;50.876;7.012;2023-08-12T14:42:19;28.68;57.60
18581;DHT22;9420;50.876;7.012;2023-08-12T14:44:46;27.19;62.10
18581;DHT22;9420;50.876;7.012;2023-08-12T14:47:14;26.44;64.02
18581;DHT22;9420;50.876;7.012;2023-08-12T14:49:40;27.14;64.37
18581;DHT22;9420;50.876;7.012;2023-08-12T14:52:15;27.57;61.67
18581;DHT22;9420;50.876;7.012;2023-08-12T14:54:41;26.67;63.65
18581;DHT22;9420;50.876;7.012;2023-08-12T14:57:08;28.92;59.05
18581;DHT22;9420;50.876;7.012;2023-08-12T14:59:34;30.85;54.00
18581;DHT22;9420;50.876;7.012;2023-08-12T15:02:01;30.39;54.28
18581;DHT22;9420;50.876;7.012;2023-08-12T15:04:29;29.72;54.23
18581;DHT22;9420;50.876;7.012;2023-08-12T15:06:56;27.69;58.28
18581;DHT22;9420;50.876;7.012;2023-08-12T15:09:22;27.33;59.41
18581;DHT22;9420;50.876;7.012;2023-08-12T15:11:49;27.14;60.69
18581;DHT22;9420;50.876;7.012;2023-08-12T15:14:16;26.83;59.18
18581;DHT22;9420;50.876;7.012;2023-08-12T15:16:43;26.45;59.90
18581;DHT22;9420;50.876;7.012;2023-08-12T15:19:10;26.14;61.03
18581;DHT22;9420;50.876;7.012;2023-08-12T15:21:38;27.27;59.38
18581;DHT22;9420;50.876;7.012;2023-08-12T15:24:05;27.02;59.30
18581;DHT22;9420;50.876;7.012;2023-08-12T15:26:32;26.17;61.37
18581;DHT22;9420;50.876;7.012;2023-08-12T15:28:58;26.28;61.42
18581;DHT22;9420;50.876;7.012;2023-08-12T15:31:25;26.27;61.15
18581;DHT22;9420;50.876;7.012;2023-08-12T15:33:51;25.72;63.08
18581;DHT22;9420;50.876;7.012;2023-08-12T15:36:18;26.45;62.20
18581;DHT22;9420;50.876;7.012;2023-08-12T15:38:46;27.34;58.61
18581;DHT22;9420;50.876;7.012;2023-08-12T15:41:15;27.98;57.11
18581;DHT22;9420;50.876;7.012;2023-08-12T15:43:42;31.00;52.53
18581;DHT22;9420;50.876;7.012;2023-08-12T15:46:09;28.77;54.91